createdAt,value
2018-12-06T00:02:46.570Z,1.55
2018-12-06T00:13:52.214Z,2.27
2018-12-06T00:19:05.421Z,1.72
2018-12-06T00:24:08.178Z,1.52
2018-12-06T00:29:10.715Z,1.85
2018-12-06T00:34:13.365Z,2.53
2018-12-06T00:39:15.983Z,1.57
2018-12-06T00:44:18.462Z,1.77
2018-12-06T00:49:20.938Z,1.67
2018-12-06T00:54:23.427Z,1.70
2018-12-06T00:59:25.902Z,1.70
2018-12-06T01:04:28.710Z,3.03
2018-12-06T01:09:31.421Z,1.27
2018-12-06T01:14:41.281Z,2.02
2018-12-06T01:19:43.782Z,1.60
2018-12-06T01:24:46.418Z,2.22
2018-12-06T01:29:48.930Z,2.08
2018-12-06T01:34:51.654Z,2.08
2018-12-06T01:39:54.366Z,2.33
2018-12-06T01:44:56.841Z,1.67
2018-12-06T01:49:59.326Z,1.40
2018-12-06T01:55:01.841Z,1.70
2018-12-06T02:00:06.158Z,1.38
2018-12-06T02:05:08.873Z,2.08
2018-12-06T02:10:11.398Z,1.37
2018-12-06T02:15:13.958Z,1.60
2018-12-06T02:20:16.458Z,0.90
2018-12-06T02:25:18.981Z,1.43
2018-12-06T02:30:21.735Z,1.17
2018-12-06T02:35:24.266Z,1.52
2018-12-06T02:40:26.746Z,1.95
2018-12-06T02:45:29.326Z,1.92
2018-12-06T02:50:31.830Z,1.30
2018-12-06T02:55:34.738Z,1.50
2018-12-06T03:00:37.302Z,1.10
2018-12-06T03:05:39.807Z,1.50
2018-12-06T03:10:42.305Z,1.37
2018-12-06T03:15:45.008Z,1.05
2018-12-06T03:20:47.549Z,1.60
2018-12-06T03:25:50.039Z,1.50
2018-12-06T03:30:52.526Z,1.10
2018-12-06T03:35:55.046Z,1.47
2018-12-06T03:40:57.623Z,1.33
2018-12-06T03:46:00.113Z,2.03
2018-12-06T03:51:03.247Z,1.10
2018-12-06T03:56:05.726Z,1.43
2018-12-06T04:01:09.002Z,1.50
2018-12-06T04:06:11.478Z,1.30
2018-12-06T04:11:13.991Z,1.70
2018-12-06T04:16:16.626Z,1.87
2018-12-06T04:21:19.121Z,1.30
2018-12-06T04:26:21.649Z,0.93
2018-12-06T04:31:24.790Z,1.30
2018-12-06T04:36:27.295Z,0.82
2018-12-06T04:41:29.790Z,1.15
2018-12-06T04:46:32.266Z,1.40
2018-12-06T04:51:34.787Z,1.22
2018-12-06T04:56:37.276Z,1.23
2018-12-06T05:01:39.786Z,1.10
2018-12-06T05:06:42.261Z,2.53
2018-12-06T05:11:44.878Z,1.82
2018-12-06T05:16:47.430Z,1.57
2018-12-06T05:21:50.020Z,1.90
2018-12-06T05:26:52.970Z,1.35
2018-12-06T05:31:55.455Z,2.23
2018-12-06T05:36:58.054Z,3.08
2018-12-06T05:42:00.854Z,1.12
2018-12-06T05:47:03.366Z,1.77
2018-12-06T05:52:05.842Z,1.97
2018-12-06T05:57:08.788Z,1.50
2018-12-06T06:02:11.262Z,2.63
2018-12-06T06:07:13.926Z,1.63
2018-12-06T06:12:16.403Z,1.83
2018-12-06T06:17:18.990Z,1.87
2018-12-06T06:22:21.749Z,1.60
2018-12-06T06:27:26.212Z,1.12
2018-12-06T06:32:28.906Z,1.07
2018-12-06T06:37:31.406Z,1.67
2018-12-06T06:42:33.888Z,1.30
2018-12-06T06:47:36.392Z,1.00
2018-12-06T06:52:39.754Z,1.30
2018-12-06T06:57:42.402Z,1.87
2018-12-06T07:02:44.904Z,1.40
2018-12-06T07:07:47.378Z,1.73
2018-12-06T07:12:50.006Z,1.00
2018-12-06T07:17:52.509Z,1.87
2018-12-06T07:22:55.014Z,0.80
2018-12-06T07:27:57.494Z,1.43
2018-12-06T07:32:59.998Z,1.00
2018-12-06T07:38:02.638Z,0.80
2018-12-06T07:43:05.163Z,1.40
2018-12-06T07:48:07.834Z,3.13
2018-12-06T07:53:10.336Z,4.33
2018-12-06T07:58:12.806Z,4.30
2018-12-06T08:03:15.303Z,6.60
2018-12-06T08:08:17.911Z,5.03
2018-12-06T08:13:20.382Z,4.30
2018-12-06T08:18:22.886Z,3.73
2018-12-06T08:23:25.370Z,4.13
2018-12-06T08:28:27.873Z,9.33
2018-12-06T08:33:30.374Z,5.27
2018-12-06T08:38:32.849Z,3.30
2018-12-06T08:43:35.350Z,4.13
2018-12-06T08:48:38.118Z,3.03
2018-12-06T08:53:40.598Z,3.67
2018-12-06T08:58:43.097Z,5.70
2018-12-06T09:03:45.618Z,5.20
2018-12-06T09:08:48.090Z,3.75
2018-12-06T09:13:50.600Z,2.35
2018-12-06T09:18:53.122Z,2.30
2018-12-06T09:23:55.662Z,2.13
2018-12-06T09:28:58.158Z,5.13
2018-12-06T09:34:04.397Z,3.27
2018-12-06T09:39:07.531Z,2.30
2018-12-06T09:44:10.065Z,2.13
2018-12-06T09:49:13.426Z,4.00
2018-12-06T09:54:15.902Z,2.80
2018-12-06T09:59:18.457Z,2.65
2018-12-06T10:04:21.353Z,5.50
2018-12-06T10:09:23.954Z,2.07
2018-12-06T10:14:26.426Z,5.53
2018-12-06T10:19:28.905Z,2.40
2018-12-06T10:24:31.851Z,3.27
2018-12-06T10:29:34.323Z,3.20
2018-12-06T10:34:36.817Z,3.17
2018-12-06T10:39:39.343Z,2.93
2018-12-06T10:44:41.819Z,2.98
2018-12-06T10:49:44.301Z,1.75
2018-12-06T10:54:46.778Z,2.10
2018-12-06T10:59:49.283Z,2.60
2018-12-06T11:04:51.753Z,2.97
2018-12-06T11:09:54.233Z,2.67
2018-12-06T11:14:56.735Z,3.10
2018-12-06T11:19:59.245Z,2.77
2018-12-06T11:25:02.390Z,2.27
2018-12-06T11:30:06.036Z,2.73
2018-12-06T11:35:08.715Z,2.97
2018-12-06T11:40:11.579Z,3.60
2018-12-06T11:45:14.179Z,5.53
2018-12-06T11:50:16.765Z,2.10
2018-12-06T11:55:19.886Z,1.83
2018-12-06T12:00:22.628Z,2.40
2018-12-06T12:05:25.130Z,3.27
2018-12-06T12:10:27.610Z,6.62
2018-12-06T12:15:30.119Z,2.90
2018-12-06T12:20:32.998Z,1.85
2018-12-06T12:25:35.530Z,3.58
2018-12-06T12:30:38.590Z,3.63
2018-12-06T12:35:41.314Z,1.20
2018-12-06T12:40:43.946Z,2.22
2018-12-06T12:45:46.782Z,2.20
2018-12-06T12:50:49.717Z,2.33
2018-12-06T12:55:52.238Z,1.92
2018-12-06T13:00:54.710Z,1.15
2018-12-06T13:05:57.188Z,1.37
2018-12-06T13:10:59.666Z,1.82
2018-12-06T13:16:02.193Z,2.20
2018-12-06T13:21:04.730Z,2.33
2018-12-06T13:26:07.206Z,1.57
2018-12-06T13:31:09.687Z,2.03
2018-12-06T13:36:12.363Z,2.73
2018-12-06T13:41:14.898Z,1.47
2018-12-06T13:46:17.378Z,3.20
2018-12-06T13:51:19.938Z,2.90
2018-12-06T13:56:22.957Z,1.30
2018-12-06T14:01:25.606Z,1.93
2018-12-06T14:06:28.332Z,1.23
2018-12-06T14:11:31.503Z,3.47
2018-12-06T14:16:34.009Z,4.00
2018-12-06T14:21:36.482Z,1.00
2018-12-06T14:26:38.958Z,2.12
2018-12-06T14:31:41.438Z,1.52
2018-12-06T14:36:44.582Z,3.03
2018-12-06T14:41:47.118Z,2.47
2018-12-06T14:46:49.614Z,1.85
2018-12-06T14:51:52.242Z,1.85
2018-12-06T14:56:54.718Z,4.17
2018-12-06T15:01:57.242Z,2.62
2018-12-06T15:06:59.746Z,2.65
2018-12-06T15:12:02.456Z,4.15
2018-12-06T15:17:05.070Z,1.45
2018-12-06T15:22:07.638Z,4.55
2018-12-06T15:27:11.406Z,2.05
2018-12-06T15:32:13.970Z,2.25
2018-12-06T15:37:16.461Z,1.83
2018-12-06T15:42:18.954Z,4.22
2018-12-06T15:47:21.445Z,3.67
2018-12-06T15:52:24.011Z,3.95
2018-12-06T15:57:26.534Z,3.35
2018-12-06T16:02:29.135Z,4.75
2018-12-06T16:07:31.725Z,3.08
2018-12-06T16:12:34.219Z,11.20
2018-12-06T16:17:36.816Z,20.20
2018-12-06T16:22:39.346Z,22.77
2018-12-06T16:27:41.838Z,21.05
2018-12-06T16:32:44.314Z,24.43
2018-12-06T16:37:47.548Z,25.25
2018-12-06T16:42:50.830Z,20.60
2018-12-06T16:47:53.314Z,31.95
2018-12-06T16:52:55.825Z,31.63
2018-12-06T16:57:58.391Z,32.70
2018-12-06T17:03:00.980Z,32.35
2018-12-06T17:08:03.566Z,38.23
2018-12-06T17:13:06.084Z,45.92
2018-12-06T17:18:08.662Z,64.15
2018-12-06T17:23:11.250Z,63.70
2018-12-06T17:28:13.851Z,58.98
2018-12-06T17:33:16.357Z,52.10
2018-12-06T17:38:18.934Z,47.60
2018-12-06T17:43:22.035Z,45.85
2018-12-06T17:48:24.635Z,39.83
2018-12-06T17:53:27.234Z,37.17
2018-12-06T17:58:29.817Z,43.42
2018-12-06T18:03:32.306Z,35.45
2018-12-06T18:08:34.906Z,36.00
2018-12-06T18:13:37.497Z,39.55
2018-12-06T18:18:40.523Z,44.27
2018-12-06T18:23:44.022Z,44.23
2018-12-06T18:28:46.614Z,42.67
2018-12-06T18:33:49.722Z,44.08
2018-12-06T18:38:52.315Z,47.70
2018-12-06T18:43:54.927Z,41.90
2018-12-06T18:48:57.844Z,40.43
2018-12-06T18:54:00.410Z,33.80
2018-12-06T18:59:02.995Z,30.82
2018-12-06T19:04:05.700Z,25.00
2018-12-06T19:09:08.290Z,25.37
2018-12-06T19:14:10.882Z,29.35
2018-12-06T19:19:13.423Z,27.25
2018-12-06T19:24:16.026Z,24.53
2018-12-06T19:29:18.549Z,25.30
2018-12-06T19:34:21.158Z,19.45
2018-12-06T19:39:23.749Z,25.12
2018-12-06T19:44:26.257Z,18.77
2018-12-06T19:49:28.980Z,16.37
2018-12-06T19:54:32.883Z,16.95
2018-12-06T19:59:35.426Z,14.18
2018-12-06T20:04:38.301Z,20.20
2018-12-06T20:09:40.861Z,15.07
2018-12-06T20:14:43.374Z,13.50
2018-12-06T20:19:45.933Z,15.03
2018-12-06T20:24:48.462Z,12.68
2018-12-06T20:29:51.021Z,12.23
2018-12-06T20:34:53.494Z,12.13
2018-12-06T20:39:56.121Z,12.23
2018-12-06T20:44:58.701Z,10.27
2018-12-06T20:50:01.202Z,9.50
2018-12-06T20:55:03.994Z,11.03
2018-12-06T21:00:06.794Z,8.63
2018-12-06T21:05:09.471Z,11.33
2018-12-06T21:10:12.185Z,7.90
2018-12-06T21:15:14.786Z,8.93
2018-12-06T21:20:17.378Z,9.47
2018-12-06T21:25:19.865Z,8.27
2018-12-06T21:30:22.567Z,7.87
2018-12-06T21:35:25.158Z,11.03
2018-12-06T21:40:27.759Z,8.00
2018-12-06T21:45:30.350Z,7.87
2018-12-06T21:50:32.994Z,11.53
2018-12-06T21:55:35.543Z,8.20
2018-12-06T22:00:38.129Z,8.97
2018-12-06T22:05:40.631Z,7.50
2018-12-06T22:10:43.222Z,7.92
2018-12-06T22:15:45.816Z,6.90
2018-12-06T22:20:48.431Z,5.92
2018-12-06T22:25:50.995Z,10.68
2018-12-06T22:30:53.511Z,7.90
2018-12-06T22:35:56.082Z,6.23
2018-12-06T22:40:58.711Z,6.03
2018-12-06T22:46:01.270Z,8.53
2018-12-06T22:51:03.914Z,6.40
2018-12-06T22:56:06.563Z,6.33
2018-12-06T23:01:10.994Z,4.60
2018-12-06T23:06:13.804Z,7.28
2018-12-06T23:11:16.316Z,6.37
2018-12-06T23:16:18.892Z,6.43
2018-12-06T23:21:21.481Z,7.03
2018-12-06T23:26:24.071Z,5.25
2018-12-06T23:31:26.562Z,5.63
2018-12-06T23:36:29.065Z,4.93
2018-12-06T23:41:31.606Z,4.58
2018-12-06T23:46:34.137Z,4.67
2018-12-06T23:51:37.385Z,5.75
2018-12-06T23:56:39.947Z,4.67
